createdAt,value
2022-09-10T00:01:28.542Z,2.00
2022-09-10T00:03:57.125Z,2.53
2022-09-10T00:06:27.988Z,2.20
2022-09-10T00:08:58.473Z,2.40
2022-09-10T00:11:29.129Z,2.27
2022-09-10T00:13:57.698Z,2.20
2022-09-10T00:16:26.220Z,2.60
2022-09-10T00:18:54.818Z,2.70
2022-09-10T00:21:23.430Z,2.43
2022-09-10T00:23:52.215Z,2.93
2022-09-10T00:26:23.614Z,2.50
2022-09-10T00:28:52.403Z,2.57
2022-09-10T00:31:21.895Z,2.53
2022-09-10T00:33:51.158Z,2.13
2022-09-10T00:36:21.677Z,2.20
2022-09-10T00:38:51.107Z,2.10
2022-09-10T00:41:20.194Z,2.30
2022-09-10T00:43:54.833Z,2.50
2022-09-10T00:46:31.415Z,2.20
2022-09-10T00:49:00.697Z,2.33
2022-09-10T00:51:31.173Z,2.47
2022-09-10T00:54:00.194Z,2.20
2022-09-10T00:56:29.534Z,2.10
2022-09-10T00:58:59.585Z,2.33
2022-09-10T01:01:28.133Z,2.30
2022-09-10T01:03:57.674Z,2.53
2022-09-10T01:06:26.105Z,2.53
2022-09-10T01:08:54.834Z,2.63
2022-09-10T01:11:37.910Z,2.57
2022-09-10T01:14:28.280Z,2.77
2022-09-10T01:17:03.545Z,2.37
2022-09-10T01:19:45.962Z,2.50
2022-09-10T01:22:21.463Z,2.53
2022-09-10T01:24:55.801Z,2.60
2022-09-10T01:27:46.194Z,2.40
2022-09-10T01:30:17.998Z,2.90
2022-09-10T01:33:01.445Z,2.80
2022-09-10T01:35:32.263Z,2.37
2022-09-10T01:38:03.501Z,2.87
2022-09-10T01:40:32.466Z,2.70
2022-09-10T01:43:06.293Z,2.57
2022-09-10T01:45:39.158Z,2.67
2022-09-10T01:48:28.482Z,2.50
2022-09-10T01:51:01.161Z,2.57
2022-09-10T01:53:37.140Z,2.80
2022-09-10T01:56:06.873Z,3.00
2022-09-10T01:58:38.653Z,2.63
2022-09-10T02:01:12.467Z,2.60
2022-09-10T02:03:42.148Z,2.40
2022-09-10T02:06:13.102Z,3.13
2022-09-10T02:08:43.114Z,2.43
2022-09-10T02:11:14.365Z,2.70
2022-09-10T02:13:44.327Z,2.50
2022-09-10T02:16:14.321Z,2.60
2022-09-10T02:18:43.652Z,2.57
2022-09-10T02:21:13.763Z,2.57
2022-09-10T02:23:44.395Z,2.53
2022-09-10T02:26:14.577Z,2.60
2022-09-10T02:28:45.101Z,2.37
2022-09-10T02:31:13.742Z,2.60
2022-09-10T02:33:42.381Z,2.30
2022-09-10T02:36:10.933Z,2.40
2022-09-10T02:38:42.218Z,2.50
2022-09-10T02:41:10.807Z,2.50
2022-09-10T02:43:39.834Z,2.47
2022-09-10T02:46:09.751Z,2.50
2022-09-10T02:48:39.606Z,2.57
2022-09-10T02:51:08.290Z,2.30
2022-09-10T02:53:36.930Z,2.40
2022-09-10T02:56:05.468Z,2.30
2022-09-10T02:58:34.187Z,2.50
2022-09-10T03:01:07.348Z,2.73
2022-09-10T03:03:37.282Z,2.80
2022-09-10T03:06:06.054Z,2.57
2022-09-10T03:08:34.871Z,2.50
2022-09-10T03:11:04.499Z,2.50
2022-09-10T03:13:32.938Z,2.60
2022-09-10T03:16:03.152Z,2.60
2022-09-10T03:18:32.505Z,2.40
2022-09-10T03:21:11.445Z,2.60
2022-09-10T03:23:40.399Z,2.60
2022-09-10T03:26:10.193Z,2.50
2022-09-10T03:28:39.114Z,2.50
2022-09-10T03:31:07.822Z,2.60
2022-09-10T03:33:37.483Z,2.53
2022-09-10T03:36:06.085Z,2.50
2022-09-10T03:38:36.016Z,2.43
2022-09-10T03:41:04.913Z,2.53
2022-09-10T03:43:33.493Z,2.60
2022-09-10T03:46:02.686Z,2.33
2022-09-10T03:48:31.193Z,2.50
2022-09-10T03:50:59.832Z,2.53
2022-09-10T03:53:28.357Z,2.40
2022-09-10T03:55:58.503Z,2.67
2022-09-10T03:58:27.087Z,2.40
2022-09-10T04:00:55.608Z,2.47
2022-09-10T04:03:24.085Z,2.10
2022-09-10T04:05:52.590Z,2.73
2022-09-10T04:08:21.601Z,2.43
2022-09-10T04:10:50.054Z,2.30
2022-09-10T04:13:20.031Z,2.30
2022-09-10T04:15:48.484Z,2.40
2022-09-10T04:18:16.893Z,2.33
2022-09-10T04:20:48.220Z,2.33
2022-09-10T04:23:17.427Z,2.20
2022-09-10T04:25:46.661Z,2.60
2022-09-10T04:28:16.206Z,2.67
2022-09-10T04:30:47.145Z,2.60
2022-09-10T04:33:15.734Z,2.40
2022-09-10T04:35:44.518Z,2.70
2022-09-10T04:38:12.929Z,2.93
2022-09-10T04:40:41.514Z,2.87
2022-09-10T04:43:10.167Z,2.90
2022-09-10T04:45:38.623Z,2.90
2022-09-10T04:48:08.566Z,2.70
2022-09-10T04:50:37.067Z,2.80
2022-09-10T04:53:05.510Z,3.13
2022-09-10T04:55:34.161Z,2.90
2022-09-10T04:58:02.706Z,2.63
2022-09-10T05:00:31.302Z,2.90
2022-09-10T05:02:59.726Z,2.77
2022-09-10T05:05:30.325Z,2.77
2022-09-10T05:08:00.217Z,3.00
2022-09-10T05:10:28.663Z,2.83
2022-09-10T05:12:57.166Z,2.40
2022-09-10T05:15:25.963Z,2.47
2022-09-10T05:17:54.399Z,2.67
2022-09-10T05:20:22.913Z,2.70
2022-09-10T05:22:52.841Z,2.50
2022-09-10T05:25:21.297Z,2.70
2022-09-10T05:27:51.457Z,3.00
2022-09-10T05:30:20.268Z,2.90
2022-09-10T05:32:53.513Z,2.57
2022-09-10T05:35:22.082Z,3.10
2022-09-10T05:37:50.513Z,2.90
2022-09-10T05:40:21.357Z,3.23
2022-09-10T05:42:50.054Z,2.60
2022-09-10T05:45:19.439Z,2.93
2022-09-10T05:47:48.071Z,2.77
2022-09-10T05:50:17.371Z,3.20
2022-09-10T05:52:45.807Z,2.67
2022-09-10T05:55:14.541Z,2.67
2022-09-10T05:57:44.494Z,2.87
2022-09-10T06:00:13.225Z,2.50
2022-09-10T06:02:41.944Z,2.50
2022-09-10T06:05:10.938Z,2.50
2022-09-10T06:07:39.963Z,2.37
2022-09-10T06:10:09.082Z,2.27
2022-09-10T06:12:38.176Z,2.50
2022-09-10T06:15:08.534Z,2.63
2022-09-10T06:17:38.345Z,2.13
2022-09-10T06:20:07.159Z,2.40
2022-09-10T06:22:35.937Z,2.50
2022-09-10T06:25:04.478Z,2.40
2022-09-10T06:27:33.019Z,2.40
2022-09-10T06:30:01.469Z,2.23
2022-09-10T06:32:31.396Z,2.30
2022-09-10T06:34:59.946Z,2.30
2022-09-10T06:37:28.382Z,2.30
2022-09-10T06:39:57.089Z,2.60
2022-09-10T06:42:25.738Z,2.17
2022-09-10T06:44:54.223Z,2.33
2022-09-10T06:50:13.084Z,2.20
2022-09-10T06:52:41.622Z,2.60
2022-09-10T06:55:10.915Z,2.47
2022-09-10T06:57:40.099Z,2.20
2022-09-10T07:00:09.307Z,2.33
2022-09-10T07:02:39.207Z,2.20
2022-09-10T07:05:08.079Z,2.50
2022-09-10T07:07:38.058Z,2.37
2022-09-10T07:10:07.528Z,2.13
2022-09-10T07:12:36.139Z,2.20
2022-09-10T07:15:04.729Z,1.90
2022-09-10T07:17:36.712Z,2.00
2022-09-10T07:20:05.545Z,1.97
2022-09-10T07:22:34.019Z,1.70
2022-09-10T07:25:03.927Z,1.93
2022-09-10T07:27:33.382Z,1.97
2022-09-10T07:30:01.823Z,2.00
2022-09-10T07:32:30.505Z,1.97
2022-09-10T07:34:59.010Z,2.07
2022-09-10T07:37:27.424Z,1.80
2022-09-10T07:39:56.045Z,1.80
2022-09-10T07:42:26.155Z,2.00
2022-09-10T07:44:54.581Z,1.87
2022-09-10T07:47:23.223Z,1.93
2022-09-10T07:49:52.853Z,1.90
2022-09-10T07:52:21.705Z,2.10
2022-09-10T07:54:50.202Z,1.70
2022-09-10T07:57:18.766Z,1.80
2022-09-10T07:59:48.680Z,1.50
2022-09-10T08:02:17.492Z,1.80
2022-09-10T08:04:46.570Z,1.70
2022-09-10T08:07:17.266Z,1.63
2022-09-10T08:09:45.853Z,1.70
2022-09-10T08:12:14.426Z,1.50
2022-09-10T08:14:42.827Z,1.43
2022-09-10T08:17:12.806Z,1.73
2022-09-10T08:19:41.722Z,1.50
2022-09-10T08:22:13.492Z,1.53
2022-09-10T08:24:42.550Z,1.43
2022-09-10T08:27:11.570Z,1.50
2022-09-10T08:29:40.685Z,1.60
2022-09-10T08:32:09.346Z,1.30
2022-09-10T08:34:39.241Z,1.60
2022-09-10T08:37:08.038Z,1.30
2022-09-10T08:39:36.740Z,1.50
2022-09-10T08:42:07.101Z,1.53
2022-09-10T08:44:39.131Z,1.47
2022-09-10T08:47:13.965Z,1.30
2022-09-10T08:49:46.276Z,1.20
2022-09-10T08:52:17.669Z,1.70
2022-09-10T08:54:48.302Z,1.60
2022-09-10T08:57:21.753Z,1.60
2022-09-10T08:59:52.935Z,1.60
2022-09-10T09:02:47.294Z,1.50
2022-09-10T09:05:16.037Z,1.30
2022-09-10T09:07:44.574Z,1.50
2022-09-10T09:10:28.774Z,1.30
2022-09-10T09:13:05.790Z,1.20
2022-09-10T09:15:36.848Z,1.30
2022-09-10T09:18:11.060Z,1.40
2022-09-10T09:20:46.590Z,1.70
2022-09-10T09:23:21.901Z,1.70
2022-09-10T09:25:51.806Z,4.00
2022-09-10T09:28:26.073Z,8.23
2022-09-10T09:30:57.355Z,2.23
2022-09-10T09:33:27.546Z,1.30
2022-09-10T09:35:58.947Z,1.50
2022-09-10T09:38:29.461Z,1.40
2022-09-10T09:40:59.751Z,1.40
2022-09-10T09:43:32.497Z,1.53
2022-09-10T09:46:01.966Z,1.40
2022-09-10T09:48:36.359Z,1.47
2022-09-10T09:51:07.146Z,1.50
2022-09-10T09:53:35.826Z,1.53
2022-09-10T09:56:07.181Z,1.37
2022-09-10T09:58:37.091Z,1.30
2022-09-10T10:01:16.803Z,1.50
2022-09-10T10:03:58.678Z,1.30
2022-09-10T10:06:29.122Z,1.70
2022-09-10T10:08:59.794Z,1.50
2022-09-10T10:11:47.006Z,1.50
2022-09-10T10:14:24.024Z,1.17
2022-09-10T10:16:57.407Z,1.50
2022-09-10T10:19:29.798Z,1.70
2022-09-10T10:22:01.253Z,1.50
2022-09-10T10:24:32.236Z,1.30
2022-09-10T10:27:00.904Z,1.30
2022-09-10T10:29:29.517Z,1.70
2022-09-10T10:32:01.547Z,1.47
2022-09-10T10:34:50.358Z,1.20
2022-09-10T10:37:24.538Z,1.33
2022-09-10T10:40:01.139Z,1.40
2022-09-10T10:42:32.085Z,1.50
2022-09-10T10:45:08.246Z,1.30
2022-09-10T10:47:44.823Z,1.43
2022-09-10T10:50:22.621Z,1.47
2022-09-10T10:53:00.026Z,1.73
2022-09-10T10:55:31.851Z,1.60
2022-09-10T10:58:11.182Z,1.43
2022-09-10T11:00:42.146Z,1.57
2022-09-10T11:03:16.169Z,1.50
2022-09-10T11:05:48.179Z,1.50
2022-09-10T11:08:20.629Z,1.43
2022-09-10T11:10:50.829Z,1.30
2022-09-10T11:13:23.046Z,1.27
2022-09-10T11:15:53.558Z,1.43
2022-09-10T11:18:26.666Z,1.70
2022-09-10T11:21:00.678Z,1.47
2022-09-10T11:23:34.488Z,1.53
2022-09-10T11:26:05.065Z,1.37
2022-09-10T11:28:37.910Z,1.20
2022-09-10T11:31:12.041Z,1.53
2022-09-10T11:33:46.302Z,1.50
2022-09-10T11:36:20.805Z,1.60
2022-09-10T11:38:53.484Z,1.57
2022-09-10T11:41:24.491Z,1.63
2022-09-10T11:43:54.766Z,1.60
2022-09-10T11:46:25.309Z,1.53
2022-09-10T11:48:58.157Z,1.60
2022-09-10T11:51:28.157Z,1.50
2022-09-10T11:53:58.399Z,1.53
2022-09-10T11:56:46.280Z,1.60
2022-09-10T11:59:21.317Z,1.60
2022-09-10T12:02:02.922Z,1.53
2022-09-10T12:04:42.775Z,1.53
2022-09-10T12:07:21.218Z,2.03
2022-09-10T12:09:57.926Z,1.57
2022-09-10T12:12:28.494Z,1.83
2022-09-10T12:14:57.109Z,1.70
2022-09-10T12:17:28.166Z,1.70
2022-09-10T12:19:58.109Z,1.60
2022-09-10T12:22:28.322Z,1.63
2022-09-10T12:25:01.949Z,1.97
2022-09-10T12:27:45.297Z,1.70
2022-09-10T12:30:33.703Z,1.87
2022-09-10T12:33:03.260Z,1.70
2022-09-10T12:35:45.961Z,1.23
2022-09-10T12:38:33.922Z,1.30
2022-09-10T12:41:04.167Z,1.90
2022-09-10T12:43:51.374Z,1.57
2022-09-10T12:46:22.942Z,1.50
2022-09-10T12:48:52.674Z,1.60
2022-09-10T12:51:28.417Z,1.27
2022-09-10T12:54:11.690Z,1.90
2022-09-10T12:56:53.566Z,1.30
2022-09-10T12:59:29.442Z,1.40
2022-09-10T13:01:58.417Z,1.50
2022-09-10T13:04:29.640Z,1.40
2022-09-10T13:06:59.910Z,1.40
2022-09-10T13:09:30.976Z,1.60
2022-09-10T13:12:04.389Z,1.50
2022-09-10T13:14:36.078Z,1.63
2022-09-10T13:17:04.878Z,1.40
2022-09-10T13:19:50.241Z,1.63
2022-09-10T13:22:36.241Z,1.50
2022-09-10T13:25:08.015Z,1.40
2022-09-10T13:27:41.781Z,1.50
2022-09-10T13:30:17.138Z,1.40
2022-09-10T13:32:48.442Z,1.37
2022-09-10T13:35:34.389Z,1.60
2022-09-10T13:38:23.452Z,1.30
2022-09-10T13:41:13.238Z,1.50
2022-09-10T13:43:59.470Z,1.70
2022-09-10T13:46:33.472Z,1.50
2022-09-10T13:49:06.351Z,1.60
2022-09-10T13:51:37.459Z,1.50
2022-09-10T13:54:09.465Z,1.50
2022-09-10T13:56:39.065Z,1.50
2022-09-10T13:59:09.676Z,1.50
2022-09-10T14:01:50.924Z,1.97
2022-09-10T14:04:27.446Z,1.53
2022-09-10T14:06:58.410Z,1.67
2022-09-10T14:09:27.454Z,1.90
2022-09-10T14:11:56.377Z,2.17
2022-09-10T14:14:27.746Z,2.00
2022-09-10T14:16:59.054Z,2.10
2022-09-10T14:19:29.285Z,2.03
2022-09-10T14:21:58.195Z,1.93
2022-09-10T14:24:30.905Z,1.90
2022-09-10T14:27:09.601Z,2.00
2022-09-10T14:29:39.850Z,1.80
2022-09-10T14:32:18.198Z,1.80
2022-09-10T14:34:47.587Z,1.93
2022-09-10T14:37:27.286Z,1.67
2022-09-10T14:39:56.648Z,1.67
2022-09-10T14:42:27.236Z,1.60
2022-09-10T14:44:57.378Z,1.73
2022-09-10T14:47:30.146Z,1.52
2022-09-10T14:50:13.814Z,1.80
2022-09-10T14:52:42.361Z,1.65
2022-09-10T14:55:10.822Z,1.55
2022-09-10T14:57:39.374Z,1.60
2022-09-10T15:00:11.586Z,1.90
2022-09-10T15:02:42.814Z,1.75
2022-09-10T15:05:16.411Z,1.60
2022-09-10T15:07:45.358Z,1.60
2022-09-10T15:10:14.262Z,1.50
2022-09-10T15:12:44.509Z,1.40
2022-09-10T15:15:17.715Z,1.60
2022-09-10T15:17:46.768Z,1.43
2022-09-10T15:20:16.957Z,1.50
2022-09-10T15:22:45.675Z,1.43
2022-09-10T15:25:24.509Z,1.43
2022-09-10T15:27:53.213Z,1.50
2022-09-10T15:30:25.797Z,1.40
2022-09-10T15:32:54.922Z,1.60
2022-09-10T15:35:23.758Z,1.50
2022-09-10T15:37:52.350Z,1.70
2022-09-10T15:40:20.997Z,1.40
2022-09-10T15:42:49.887Z,1.50
2022-09-10T15:45:20.242Z,1.60
2022-09-10T15:47:50.222Z,1.63
2022-09-10T15:50:18.797Z,1.40
2022-09-10T15:52:47.476Z,1.58
2022-09-10T15:55:16.058Z,1.73
2022-09-10T15:57:44.789Z,1.47
2022-09-10T16:00:13.996Z,1.60
2022-09-10T16:02:43.227Z,1.57
2022-09-10T16:05:13.287Z,1.90
2022-09-10T16:07:41.823Z,1.57
2022-09-10T16:10:10.426Z,1.60
2022-09-10T16:12:38.869Z,1.80
2022-09-10T16:15:07.767Z,1.50
2022-09-10T16:17:36.340Z,1.60
2022-09-10T16:20:05.064Z,1.53
2022-09-10T16:22:35.163Z,1.53
2022-09-10T16:25:08.575Z,1.53
2022-09-10T16:27:40.388Z,1.63
2022-09-10T16:30:12.105Z,1.43
2022-09-10T16:32:40.770Z,1.80
2022-09-10T16:35:09.713Z,1.67
2022-09-10T16:37:39.706Z,1.67
2022-09-10T16:40:09.387Z,1.80
2022-09-10T16:42:37.897Z,1.67
2022-09-10T16:45:06.658Z,2.00
2022-09-10T16:47:35.194Z,1.83
2022-09-10T16:50:03.651Z,1.67
2022-09-10T16:52:32.539Z,1.50
2022-09-10T16:55:04.790Z,1.67
2022-09-10T16:57:33.294Z,2.30
2022-09-10T17:00:01.798Z,1.63
2022-09-10T17:02:30.850Z,1.40
2022-09-10T17:04:59.591Z,1.50
2022-09-10T17:07:28.211Z,1.47
2022-09-10T17:10:00.764Z,1.70
2022-09-10T17:12:31.202Z,1.80
2022-09-10T17:14:59.625Z,1.67
2022-09-10T17:17:28.387Z,1.90
2022-09-10T17:19:57.290Z,1.80
2022-09-10T17:22:27.030Z,1.60
2022-09-10T17:24:56.134Z,1.60
2022-09-10T17:27:25.692Z,1.60
2022-09-10T17:29:55.642Z,1.43
2022-09-10T17:32:24.090Z,2.43
2022-09-10T17:34:52.737Z,1.53
2022-09-10T17:37:21.242Z,1.63
2022-09-10T17:39:51.598Z,1.70
2022-09-10T17:42:20.432Z,1.60
2022-09-10T17:44:49.445Z,1.60
2022-09-10T17:47:19.255Z,1.80
2022-09-10T17:49:48.094Z,1.57
2022-09-10T17:52:16.541Z,1.63
2022-09-10T17:54:45.356Z,1.60
2022-09-10T17:57:14.871Z,1.67
2022-09-10T17:59:43.333Z,1.70
2022-09-10T18:02:15.564Z,1.60
2022-09-10T18:04:45.505Z,1.50
2022-09-10T18:07:14.263Z,1.50
2022-09-10T18:09:42.873Z,1.50
2022-09-10T18:12:11.458Z,1.70
2022-09-10T18:14:40.056Z,1.73
2022-09-10T18:17:08.910Z,2.20
2022-09-10T18:19:37.350Z,1.50
2022-09-10T18:22:07.830Z,1.67
2022-09-10T18:24:36.865Z,1.63
2022-09-10T18:27:05.406Z,1.70
2022-09-10T18:29:33.982Z,1.57
2022-09-10T18:32:03.163Z,1.60
2022-09-10T18:34:32.449Z,1.43
2022-09-10T18:37:01.806Z,1.50
2022-09-10T18:39:32.588Z,1.70
2022-09-10T18:42:02.378Z,1.70
2022-09-10T18:44:33.198Z,1.63
2022-09-10T18:47:01.833Z,1.60
2022-09-10T18:49:30.349Z,1.40
2022-09-10T18:51:59.250Z,1.60
2022-09-10T18:54:29.457Z,1.47
2022-09-10T18:56:59.328Z,1.50
2022-09-10T18:59:27.943Z,1.60
2022-09-10T19:01:57.069Z,1.50
2022-09-10T19:04:26.825Z,1.90
2022-09-10T19:06:55.669Z,2.10
2022-09-10T19:09:25.113Z,1.80
2022-09-10T19:11:54.790Z,1.80
2022-09-10T19:14:26.205Z,2.03
2022-09-10T19:16:56.403Z,2.00
2022-09-10T19:19:28.083Z,1.90
2022-09-10T19:21:59.471Z,2.00
2022-09-10T19:24:50.934Z,1.63
2022-09-10T19:27:18.266Z,1.63
2022-09-10T19:29:49.927Z,2.00
2022-09-10T19:32:19.894Z,1.70
2022-09-10T19:34:50.888Z,1.90
2022-09-10T19:37:19.601Z,1.80
2022-09-10T19:39:48.194Z,1.80
2022-09-10T19:42:17.395Z,1.50
2022-09-10T19:44:45.827Z,1.67
2022-09-10T19:47:15.741Z,1.60
2022-09-10T19:49:44.338Z,1.80
2022-09-10T19:52:12.777Z,1.83
2022-09-10T19:54:41.230Z,1.80
2022-09-10T19:57:09.790Z,1.70
2022-09-10T19:59:38.286Z,1.50
2022-09-10T20:02:06.837Z,1.60
2022-09-10T20:04:37.037Z,1.90
2022-09-10T20:07:06.122Z,1.70
2022-09-10T20:09:39.206Z,1.70
2022-09-10T20:12:09.426Z,1.80
2022-09-10T20:14:38.166Z,1.70
2022-09-10T20:17:06.602Z,1.83
2022-09-10T20:19:35.243Z,2.00
2022-09-10T20:22:05.047Z,1.87
2022-09-10T20:24:33.609Z,2.30
2022-09-10T20:27:03.795Z,2.13
2022-09-10T20:29:32.926Z,2.00
2022-09-10T20:32:01.386Z,1.90
2022-09-10T20:34:31.445Z,2.00
2022-09-10T20:36:59.955Z,2.00
2022-09-10T20:39:31.681Z,1.93
2022-09-10T20:42:00.746Z,2.00
2022-09-10T20:44:30.097Z,1.70
2022-09-10T20:46:58.723Z,1.90
2022-09-10T20:49:27.922Z,1.90
2022-09-10T20:51:56.447Z,2.13
2022-09-10T20:54:24.882Z,2.20
2022-09-10T20:56:55.024Z,2.10
2022-09-10T20:59:27.501Z,1.90
2022-09-10T21:01:56.791Z,2.00
2022-09-10T21:04:26.426Z,2.17
2022-09-10T21:06:55.208Z,1.90
2022-09-10T21:09:23.773Z,1.80
2022-09-10T21:11:52.241Z,2.10
2022-09-10T21:14:22.043Z,2.07
2022-09-10T21:16:50.821Z,1.80
2022-09-10T21:19:19.601Z,1.70
2022-09-10T21:21:48.900Z,2.10
2022-09-10T21:24:18.597Z,1.90
2022-09-10T21:26:47.038Z,2.00
2022-09-10T21:29:16.442Z,2.03
2022-09-10T21:31:46.673Z,1.90
2022-09-10T21:34:15.570Z,1.90
2022-09-10T21:36:44.125Z,2.13
2022-09-10T21:39:14.404Z,2.00
2022-09-10T21:41:44.071Z,1.73
2022-09-10T21:44:14.701Z,2.13
2022-09-10T21:46:43.692Z,2.03
2022-09-10T21:49:14.075Z,1.93
2022-09-10T21:51:42.990Z,2.20
2022-09-10T21:54:15.306Z,1.83
2022-09-10T21:56:44.118Z,2.00
2022-09-10T21:59:13.134Z,2.40
2022-09-10T22:01:43.617Z,2.70
2022-09-10T22:04:20.006Z,2.50
2022-09-10T22:06:50.954Z,2.10
2022-09-10T22:09:20.028Z,2.50
2022-09-10T22:11:50.287Z,2.57
2022-09-10T22:14:20.646Z,2.83
2022-09-10T22:16:49.073Z,2.33
2022-09-10T22:19:19.855Z,3.13
2022-09-10T22:21:48.674Z,2.50
2022-09-10T22:24:18.501Z,2.07
2022-09-10T22:26:48.042Z,2.10
2022-09-10T22:29:18.425Z,2.20
2022-09-10T22:31:47.281Z,2.20
2022-09-10T22:34:16.594Z,2.30
2022-09-10T22:36:47.442Z,2.27
2022-09-10T22:39:17.516Z,2.80
2022-09-10T22:41:46.297Z,2.83
2022-09-10T22:44:15.017Z,2.60
2022-09-10T22:46:43.725Z,2.50
2022-09-10T22:49:12.360Z,2.57
2022-09-10T22:51:42.142Z,2.20
2022-09-10T22:54:12.142Z,2.63
2022-09-10T22:56:42.039Z,2.37
2022-09-10T22:59:13.823Z,2.47
2022-09-10T23:01:43.425Z,2.50
2022-09-10T23:04:12.222Z,2.73
2022-09-10T23:06:40.910Z,2.70
2022-09-10T23:09:10.745Z,2.20
2022-09-10T23:11:40.886Z,2.10
2022-09-10T23:14:10.398Z,2.00
2022-09-10T23:16:39.622Z,2.00
2022-09-10T23:19:09.189Z,2.07
2022-09-10T23:21:38.337Z,2.30
2022-09-10T23:24:08.057Z,2.10
2022-09-10T23:26:36.796Z,2.13
2022-09-10T23:29:07.323Z,2.50
2022-09-10T23:31:37.484Z,2.07
2022-09-10T23:34:07.167Z,2.00
2022-09-10T23:36:38.203Z,1.70
2022-09-10T23:39:07.604Z,1.80
2022-09-10T23:41:36.981Z,2.43
2022-09-10T23:44:07.125Z,2.10
2022-09-10T23:46:36.015Z,2.33
2022-09-10T23:49:05.036Z,2.03
2022-09-10T23:51:33.466Z,2.10
2022-09-10T23:54:02.827Z,1.77
2022-09-10T23:56:32.088Z,2.10
2022-09-10T23:59:00.562Z,2.10
